This is the latest recevied weather packets stored in our database for station/object TA2CAY. If no packets are shown the sender has not sent any weather packets the latest 1 day(s).
| Time | Temp. | Humidity | Pressure | Rain* | Wind** | Luminosity | Snow |
|---|---|---|---|---|---|---|---|
| 1778097492 | 15.56° C | 86% | 1026.6 hPa | - | - | - | - |
| 1778095691 | 16.11° C | 87% | 1026.7 hPa | - | - | - | - |
| 1778093890 | 17.22° C | 86% | 1026.6 hPa | - | - | - | - |
| 1778083085 | 21.11° C | 70% | 1025.9 hPa | - | - | - | - |
| 1778070478 | 25° C | 52% | 1025.7 hPa | - | - | - | - |
| 1778068677 | 23.89° C | 55% | 1025.9 hPa | - | - | - | - |
| 1778066876 | 21.67° C | 62% | 1026.3 hPa | - | - | - | - |
| 1778057872 | 21.67° C | 65% | 1026.5 hPa | - | - | - | - |
| 1778056071 | 21.67° C | 67% | 1026.5 hPa | - | - | - | - |
| 1778054270 | 21.11° C | 68% | 1026.4 hPa | - | - | - | - |
| 1778052469 | 20° C | 72% | 1026.5 hPa | - | - | - | - |
| 1778050668 | 18.89° C | 76% | 1026.6 hPa | - | - | - | - |
| 1778048867 | 18.33° C | 79% | 1026.5 hPa | - | - | - | - |
| 1778047066 | 17.78° C | 81% | 1026.6 hPa | - | - | - | - |
| 1778043465 | 17.22° C | 84% | 1026.4 hPa | - | - | - | - |
| 1778041664 | 16.11° C | 87% | 1026.3 hPa | - | - | - | - |
| 1778039863 | 16.11° C | 87% | 1026 hPa | - | - | - | - |
| 1778038062 | 16.11° C | 87% | 1025.9 hPa | - | - | - | - |
| 1778036261 | 16.11° C | 89% | 1025.6 hPa | - | - | - | - |
| 1778034460 | 16.11° C | 87% | 1025.2 hPa | - | - | - | - |
| 1778030857 | 16.67° C | 87% | 1024.8 hPa | - | - | - | - |
| 1778029057 | 15.56° C | 88% | 1024.9 hPa | - | - | - | - |
| 1778027256 | 16.11° C | 87% | 1025 hPa | - | - | - | - |
* Rain since midnight (hover to see other rain measurements)
** Current wind speed in m/s (hover to see current wind gust speed)